Towson, MD

8:09 PM EDT on June 03, 2015 (GMT -0400)
Towson Weather | | Change Station
CLOSE
Current Station
Personal Weather Station
Location: Towson, MD
Elevation: 407 ft
Nearby Weather Stations

Elev 407 ft 39.38 °N, 76.60 °W | Updated 6 seconds ago

Overcast
Overcast
61.3 °F
Feels Like 61.3 °F
N
0.0
Wind Variable Wind from ENE
Gusts 0.0 mph

Today
High -- | Low -- °F
--% Chance of Precip.
Yesterday
High -- | Low -- °F
Precip. -- in
5:40 AM 8:28 PM
Full, 98% visible
Pressure 30.18 in
Visibility 10.0 miles
Clouds Overcast 2400 ft
Dew Point 56 °F
Humidity 84%
Rainfall 0.05 in
Snow Depth Not available.
UV 0.0 out of 12
Pollen 1.30 out of 12
Air Quality Not available.
Flu Activity Sporadic
METAR KMTN 032345Z 00000KT 10SM OVC024 18/15 A3018

More Conditions Fewer Conditions

Pressure 30.18 in
Visibility 10.0 miles
Clouds Overcast 2400 ft
Dew Point 56 °F
Humidity 84%
Rainfall 0.05 in
Snow Depth Not available.
UV 0.0 out of 12
Pollen 1.30 out of 12
Air Quality Not available.
Flu Activity Sporadic
METAR KMTN 032345Z 00000KT 10SM OVC024 18/15 A3018

More Conditions Fewer Conditions

10-Day Weather Forecast

×

Almanac

Astronomy

Jun. 03, 2015 Rise Set
Actual Time
Civil Twilight
Nautical Twilight
Astronomical Twilight
Moon
Length of Visible Light
Length of Day
Tomorrow will be .
, % of the Moon is Illuminated

Today's Extremes

State Highs State Lows

Community

WunderPhotos

Upload Photos

1,826,306 photos uploaded!

WunderBlogs® & News

Nearby

Air Quality

  Air Quality AQ Index Pollutant
Not available.

Snow Depth

Station Depth Elevation

Earthquake Activity

City Distance Mag. Time & Date
Minimum magnitude displayed is 2.5.

Coastal Water Temperatures

Place Temperature

Stations

Nearby Weather Stations

Station Location Temp. Windchill Dew Point Humidity Wind Precip. Elev Updated Type